Back to Top

Language: 

My Weather Underground Personal Weather Station Historical Data with Graphs...

Delerius Weather Station Historical Data
Daily Summary for May 1, 2017 Units:  English    Metric   Both
« Previous Day
Next Day »
Daily Weekly Monthly Yearly Custom
  High: Low: Average:
Temperature: 61.2 °F 46.6 °F 52.5 °F
Dew Point: 48.8 °F 42.6 °F 45.2 °F
Humidity: 91 % 53 % 77 %
Wind Speed: 10.0 mph 0.0 mph 5 mph
Wind Gust: 20.0 mph - -
Wind:- - ENE
Pressure: 30.00 in 29.55 in -
Precipitation: 0.00 in    
Historical Graphs
 
 
Tabular Data for May 1, 2017
Time Temperature Dew Point Pressure Wind Wind Speed Wind Gust Humidity Rainfall Rate (Hourly) solar Conditions
00:01 50.5 °F 44.3 °F 29.56 in ENE 2.0 mph 7.0 mph 79 % 0.00 in 0 W/m2
00:06 50.5 °F 44.3 °F 29.56 in NE 3.0 mph 7.0 mph 79 % 0.00 in 0 W/m2
00:11 50.5 °F 44.3 °F 29.56 in NE 2.0 mph 7.0 mph 79 % 0.00 in 0 W/m2
00:16 50.4 °F 44.1 °F 29.56 in NE 2.0 mph 7.0 mph 79 % 0.00 in 0 W/m2
00:21 50.4 °F 44.4 °F 29.57 in NE 1.0 mph 7.0 mph 80 % 0.00 in 0 W/m2
00:26 50.2 °F 44.2 °F 29.56 in ENE 1.0 mph 6.0 mph 80 % 0.00 in 0 W/m2
00:31 50.2 °F 44.2 °F 29.56 in NE 2.0 mph 6.0 mph 80 % 0.00 in 0 W/m2
00:36 50.2 °F 44.2 °F 29.56 in NE 1.0 mph 6.0 mph 80 % 0.00 in 0 W/m2
00:41 50.2 °F 44.2 °F 29.56 in NE 1.0 mph 6.0 mph 80 % 0.00 in 0 W/m2
00:46 50.2 °F 44.6 °F 29.56 in North 2.0 mph 6.0 mph 81 % 0.00 in 0 W/m2
00:51 50.2 °F 44.6 °F 29.56 in North 1.0 mph 6.0 mph 81 % 0.00 in 0 W/m2
00:56 50.0 °F 44.4 °F 29.56 in NNW 1.0 mph 4.0 mph 81 % 0.00 in 0 W/m2
01:01 49.8 °F 44.2 °F 29.56 in NNW 1.0 mph 4.0 mph 81 % 0.00 in 0 W/m2
01:06 49.8 °F 44.5 °F 29.56 in NNE 2.0 mph 6.0 mph 82 % 0.00 in 0 W/m2
01:11 49.6 °F 44.4 °F 29.56 in NNE 3.0 mph 6.0 mph 82 % 0.00 in 0 W/m2
01:16 49.6 °F 44.4 °F 29.55 in NNE 3.0 mph 6.0 mph 82 % 0.00 in 0 W/m2
01:21 49.6 °F 44.7 °F 29.56 in NNE 1.0 mph 5.0 mph 83 % 0.00 in 0 W/m2
01:26 49.6 °F 44.7 °F 29.55 in NNE 1.0 mph 6.0 mph 83 % 0.00 in 0 W/m2
01:31 49.6 °F 44.7 °F 29.55 in North 1.0 mph 6.0 mph 83 % 0.00 in 0 W/m2
01:36 49.6 °F 44.7 °F 29.56 in Calm   4.0 mph 83 % 0.00 in 0 W/m2
01:41 49.6 °F 44.7 °F 29.55 in NNE 1.0 mph 7.0 mph 83 % 0.00 in 0 W/m2
01:46 49.6 °F 44.7 °F 29.55 in NNE 2.0 mph 7.0 mph 83 % 0.00 in 0 W/m2
01:51 49.6 °F 45.0 °F 29.55 in NNE 2.0 mph 6.0 mph 84 % 0.00 in 0 W/m2
01:56 49.6 °F 45.0 °F 29.55 in NE 2.0 mph 7.0 mph 84 % 0.00 in 0 W/m2
02:01 49.6 °F 45.0 °F 29.55 in NE 3.0 mph 7.0 mph 84 % 0.00 in 0 W/m2
02:07 49.6 °F 45.0 °F 29.56 in NNE 2.0 mph 7.0 mph 84 % 0.00 in 0 W/m2
02:12 49.6 °F 45.0 °F 29.55 in Calm   4.0 mph 84 % 0.00 in 0 W/m2
02:17 49.8 °F 45.2 °F 29.55 in NNW 1.0 mph 5.0 mph 84 % 0.00 in 0 W/m2
02:22 49.8 °F 45.2 °F 29.55 in NW 1.0 mph 5.0 mph 84 % 0.00 in 0 W/m2
02:27 49.8 °F 45.2 °F 29.55 in Calm   2.0 mph 84 % 0.00 in 0 W/m2
02:32 49.8 °F 45.2 °F 29.55 in Calm   1.0 mph 84 % 0.00 in 0 W/m2
02:37 49.8 °F 45.5 °F 29.55 in Calm   3.0 mph 85 % 0.00 in 0 W/m2
02:42 49.8 °F 45.5 °F 29.56 in North 1.0 mph 6.0 mph 85 % 0.00 in 0 W/m2
02:47 49.8 °F 45.5 °F 29.55 in NNE 2.0 mph 6.0 mph 85 % 0.00 in 0 W/m2
02:52 49.8 °F 45.5 °F 29.55 in NNE 2.0 mph 5.0 mph 85 % 0.00 in 0 W/m2
02:57 49.8 °F 45.5 °F 29.55 in NNE 3.0 mph 8.0 mph 85 % 0.00 in 0 W/m2
03:02 49.8 °F 45.5 °F 29.55 in NNE 3.0 mph 8.0 mph 85 % 0.00 in 0 W/m2
03:07 49.8 °F 45.5 °F 29.55 in North 3.0 mph 7.0 mph 85 % 0.00 in 0 W/m2
03:12 49.8 °F 45.5 °F 29.55 in NNE 2.0 mph 7.0 mph 85 % 0.00 in 0 W/m2
03:17 49.8 °F 45.5 °F 29.55 in NNE 2.0 mph 7.0 mph 85 % 0.00 in 0 W/m2
03:22 49.8 °F 45.2 °F 29.55 in NNE 2.0 mph 7.0 mph 84 % 0.00 in 0 W/m2
03:27 49.8 °F 45.2 °F 29.55 in North 2.0 mph 7.0 mph 84 % 0.00 in 0 W/m2
03:32 49.8 °F 45.2 °F 29.55 in North 2.0 mph 8.0 mph 84 % 0.00 in 0 W/m2
03:37 49.8 °F 45.2 °F 29.55 in NNW 4.0 mph 8.0 mph 84 % 0.00 in 0 W/m2
03:42 49.8 °F 45.2 °F 29.55 in NNW 4.0 mph 9.0 mph 84 % 0.00 in 0 W/m2
03:47 49.8 °F 45.2 °F 29.55 in North 4.0 mph 9.0 mph 84 % 0.00 in 0 W/m2
03:52 49.8 °F 45.2 °F 29.55 in North 4.0 mph 10.0 mph 84 % 0.00 in 0 W/m2
03:57 49.8 °F 45.2 °F 29.56 in NNE 3.0 mph 10.0 mph 84 % 0.00 in 0 W/m2
04:02 49.8 °F 45.2 °F 29.56 in NNE 3.0 mph 9.0 mph 84 % 0.00 in 0 W/m2
04:07 49.8 °F 45.5 °F 29.55 in North 4.0 mph 9.0 mph 85 % 0.00 in 0 W/m2
04:12 49.8 °F 45.5 °F 29.56 in North 4.0 mph 8.0 mph 85 % 0.00 in 0 W/m2
04:17 49.8 °F 45.5 °F 29.55 in NNE 5.0 mph 9.0 mph 85 % 0.00 in 0 W/m2
04:22 49.8 °F 45.5 °F 29.55 in North 5.0 mph 11.0 mph 85 % 0.00 in 0 W/m2
04:27 49.8 °F 45.5 °F 29.55 in North 6.0 mph 11.0 mph 85 % 0.00 in 0 W/m2
04:32 49.8 °F 45.5 °F 29.55 in North 5.0 mph 11.0 mph 85 % 0.00 in 0 W/m2
04:37 49.8 °F 45.5 °F 29.55 in NNE 6.0 mph 10.0 mph 85 % 0.00 in 0 W/m2
04:42 49.8 °F 45.5 °F 29.55 in NNE 6.0 mph 10.0 mph 85 % 0.00 in 0 W/m2
04:47 49.8 °F 45.5 °F 29.55 in North 6.0 mph 11.0 mph 85 % 0.00 in 0 W/m2
04:48 49.8 °F 45.5 °F 29.55 in North 6.0 mph 12.0 mph 85 % 0.00 in 0 W/m2
04:53 49.8 °F 45.5 °F 29.55 in North 7.0 mph 12.0 mph 85 % 0.00 in 0 W/m2
04:58 49.8 °F 45.5 °F 29.55 in NNE 6.0 mph 11.0 mph 85 % 0.00 in 0 W/m2
05:03 49.8 °F 45.5 °F 29.56 in NNE 6.0 mph 10.0 mph 85 % 0.00 in 0 W/m2
05:08 49.8 °F 45.5 °F 29.55 in NNE 6.0 mph 10.0 mph 85 % 0.00 in 0 W/m2
05:13 49.8 °F 45.5 °F 29.55 in NNE 6.0 mph 12.0 mph 85 % 0.00 in 0 W/m2
05:18 49.8 °F 45.2 °F 29.55 in NNE 6.0 mph 12.0 mph 84 % 0.00 in 0 W/m2
05:23 50.0 °F 45.4 °F 29.55 in NNE 6.0 mph 10.0 mph 84 % 0.00 in 0 W/m2
05:28 50.0 °F 45.4 °F 29.55 in NNE 6.0 mph 11.0 mph 84 % 0.00 in 0 W/m2
05:33 49.8 °F 45.2 °F 29.56 in NNE 7.0 mph 14.0 mph 84 % 0.00 in 0 W/m2
05:38 49.8 °F 45.2 °F 29.56 in NE 7.0 mph 14.0 mph 84 % 0.00 in 0 W/m2
05:43 49.8 °F 45.2 °F 29.56 in NE 6.0 mph 13.0 mph 84 % 0.00 in 0 W/m2
05:48 49.8 °F 45.2 °F 29.56 in NE 6.0 mph 13.0 mph 84 % 0.00 in 0 W/m2
05:54 49.8 °F 45.2 °F 29.57 in NE 7.0 mph 12.0 mph 84 % 0.00 in 0 W/m2
05:59 49.8 °F 45.2 °F 29.57 in NE 7.0 mph 12.0 mph 84 % 0.00 in 5 W/m2
06:04 49.6 °F 45.0 °F 29.57 in NE 6.0 mph 11.0 mph 84 % 0.00 in 7 W/m2
06:09 49.6 °F 45.0 °F 29.58 in NE 6.0 mph 11.0 mph 84 % 0.00 in 7 W/m2
06:14 49.6 °F 45.0 °F 29.58 in NE 6.0 mph 11.0 mph 84 % 0.00 in 9 W/m2
06:19 49.6 °F 45.0 °F 29.58 in NNE 6.0 mph 10.0 mph 84 % 0.00 in 9 W/m2
06:24 49.6 °F 45.0 °F 29.58 in NNE 5.0 mph 10.0 mph 84 % 0.00 in 11 W/m2
06:29 49.5 °F 44.8 °F 29.58 in NE 5.0 mph 10.0 mph 84 % 0.00 in 11 W/m2
06:34 49.5 °F 44.8 °F 29.58 in NNE 5.0 mph 9.0 mph 84 % 0.00 in 12 W/m2
06:39 49.5 °F 44.8 °F 29.58 in NNE 6.0 mph 11.0 mph 84 % 0.00 in 14 W/m2
06:44 49.5 °F 44.8 °F 29.59 in NNE 5.0 mph 11.0 mph 84 % 0.00 in 16 W/m2
06:49 49.3 °F 44.6 °F 29.59 in NE 5.0 mph 11.0 mph 84 % 0.00 in 16 W/m2
06:54 49.3 °F 44.6 °F 29.59 in NE 6.0 mph 11.0 mph 84 % 0.00 in 28 W/m2
06:59 49.3 °F 45.0 °F 29.59 in NE 6.0 mph 13.0 mph 85 % 0.00 in 58 W/m2
07:04 49.3 °F 45.0 °F 29.59 in NE 5.0 mph 13.0 mph 85 % 0.00 in 67 W/m2
07:09 49.3 °F 45.0 °F 29.60 in NE 5.0 mph 11.0 mph 85 % 0.00 in 77 W/m2
07:14 49.5 °F 45.1 °F 29.60 in NE 5.0 mph 10.0 mph 85 % 0.00 in 74 W/m2
07:19 49.5 °F 45.1 °F 29.60 in NE 6.0 mph 13.0 mph 85 % 0.00 in 74 W/m2
07:24 49.5 °F 45.1 °F 29.60 in NNE 6.0 mph 13.0 mph 85 % 0.00 in 74 W/m2
07:29 49.5 °F 45.1 °F 29.60 in NE 6.0 mph 15.0 mph 85 % 0.00 in 65 W/m2
07:34 49.6 °F 45.3 °F 29.61 in NE 5.0 mph 15.0 mph 85 % 0.00 in 58 W/m2
07:39 49.6 °F 45.3 °F 29.61 in NE 5.0 mph 11.0 mph 85 % 0.00 in 74 W/m2
07:44 49.6 °F 45.3 °F 29.61 in NE 5.0 mph 11.0 mph 85 % 0.00 in 91 W/m2
07:49 49.6 °F 45.3 °F 29.60 in NE 5.0 mph 9.0 mph 85 % 0.00 in 86 W/m2
07:54 49.6 °F 45.3 °F 29.60 in NE 5.0 mph 10.0 mph 85 % 0.00 in 88 W/m2
07:59 49.8 °F 45.5 °F 29.61 in NE 5.0 mph 12.0 mph 85 % 0.00 in 111 W/m2
08:04 49.8 °F 45.5 °F 29.61 in NE 5.0 mph 12.0 mph 85 % 0.00 in 148 W/m2
08:09 50.2 °F 45.8 °F 29.61 in NE 4.0 mph 11.0 mph 85 % 0.00 in 142 W/m2
08:14 50.4 °F 46.0 °F 29.61 in NE 4.0 mph 9.0 mph 85 % 0.00 in 151 W/m2
08:19 50.4 °F 46.0 °F 29.61 in NE 6.0 mph 9.0 mph 85 % 0.00 in 105 W/m2
08:24 50.5 °F 45.9 °F 29.62 in NE 5.0 mph 9.0 mph 84 % 0.00 in 100 W/m2
08:29 50.5 °F 46.2 °F 29.62 in NE 4.0 mph 10.0 mph 85 % 0.00 in 84 W/m2
08:34 50.5 °F 45.9 °F 29.62 in NE 4.0 mph 10.0 mph 84 % 0.00 in 121 W/m2
08:39 50.7 °F 46.1 °F 29.62 in NE 5.0 mph 11.0 mph 84 % 0.00 in 163 W/m2
08:44 50.9 °F 46.2 °F 29.62 in NE 6.0 mph 11.0 mph 84 % 0.00 in 113 W/m2
08:49 51.1 °F 46.4 °F 29.62 in NE 6.0 mph 11.0 mph 84 % 0.00 in 104 W/m2
08:54 51.1 °F 46.4 °F 29.63 in NE 6.0 mph 10.0 mph 84 % 0.00 in 132 W/m2
08:59 51.3 °F 46.6 °F 29.63 in NE 5.0 mph 11.0 mph 84 % 0.00 in 148 W/m2
09:04 51.4 °F 46.8 °F 29.63 in NE 5.0 mph 11.0 mph 84 % 0.00 in 207 W/m2
09:09 51.6 °F 46.9 °F 29.63 in NE 5.0 mph 9.0 mph 84 % 0.00 in 181 W/m2
09:14 52.0 °F 47.3 °F 29.63 in ENE 4.0 mph 10.0 mph 84 % 0.00 in 193 W/m2
09:19 52.3 °F 47.3 °F 29.63 in ENE 4.0 mph 10.0 mph 83 % 0.00 in 258 W/m2
09:24 52.5 °F 47.5 °F 29.64 in NE 5.0 mph 10.0 mph 83 % 0.00 in 200 W/m2
09:29 52.5 °F 47.2 °F 29.64 in ENE 5.0 mph 10.0 mph 82 % 0.00 in 128 W/m2
09:34 52.7 °F 47.4 °F 29.65 in ENE 5.0 mph 9.0 mph 82 % 0.00 in 120 W/m2
09:39 52.5 °F 47.2 °F 29.65 in ENE 4.0 mph 11.0 mph 82 % 0.00 in 97 W/m2
09:44 52.5 °F 47.2 °F 29.65 in ENE 4.0 mph 11.0 mph 82 % 0.00 in 65 W/m2
09:49 52.3 °F 47.0 °F 29.65 in ENE 4.0 mph 11.0 mph 82 % 0.00 in 49 W/m2
09:54 52.3 °F 47.0 °F 29.65 in East 3.0 mph 8.0 mph 82 % 0.00 in 39 W/m2
09:59 52.3 °F 47.3 °F 29.65 in East 3.0 mph 9.0 mph 83 % 0.00 in 56 W/m2
10:04 52.2 °F 47.2 °F 29.66 in ENE 4.0 mph 9.0 mph 83 % 0.00 in 58 W/m2
10:09 52.2 °F 47.5 °F 29.66 in East 3.0 mph 8.0 mph 84 % 0.00 in 44 W/m2
10:14 52.2 °F 47.5 °F 29.66 in East 3.0 mph 8.0 mph 84 % 0.00 in 47 W/m2
10:19 52.0 °F 47.6 °F 29.66 in East 3.0 mph 8.0 mph 85 % 0.00 in 39 W/m2
10:24 52.0 °F 47.6 °F 29.67 in East 3.0 mph 8.0 mph 85 % 0.00 in 54 W/m2
10:29 52.0 °F 47.6 °F 29.67 in East 3.0 mph 8.0 mph 85 % 0.00 in 58 W/m2
10:34 52.0 °F 47.9 °F 29.67 in East 3.0 mph 6.0 mph 86 % 0.00 in 54 W/m2
10:39 52.0 °F 47.9 °F 29.67 in East 2.0 mph 6.0 mph 86 % 0.00 in 46 W/m2
10:44 52.0 °F 47.9 °F 29.68 in East 3.0 mph 8.0 mph 86 % 0.00 in 40 W/m2
10:49 52.0 °F 47.9 °F 29.68 in East 3.0 mph 8.0 mph 86 % 0.00 in 56 W/m2
10:54 51.8 °F 48.1 °F 29.68 in ESE 3.0 mph 7.0 mph 87 % 0.00 in 127 W/m2
11:00 51.8 °F 48.1 °F 29.68 in ESE 4.0 mph 7.0 mph 87 % 0.00 in 95 W/m2
11:02 52.0 °F 48.5 °F 29.69 in ESE 4.0 mph 7.0 mph 88 % 0.00 in 84 W/m2
11:07 52.0 °F 48.5 °F 29.69 in ESE 4.0 mph 8.0 mph 88 % 0.00 in 84 W/m2
11:12 52.0 °F 48.8 °F 29.69 in ESE 5.0 mph 9.0 mph 89 % 0.00 in 105 W/m2
11:13 51.8 °F 48.7 °F 29.69 in ESE 5.0 mph 10.0 mph 89 % 0.00 in 109 W/m2
11:18 51.6 °F 48.5 °F 29.70 in ESE 6.0 mph 10.0 mph 89 % 0.00 in 93 W/m2
11:24 51.6 °F 48.5 °F 29.70 in ESE 6.0 mph 10.0 mph 89 % 0.00 in 113 W/m2
11:26 51.6 °F 48.5 °F 29.70 in ESE 6.0 mph 10.0 mph 89 % 0.00 in 116 W/m2
11:31 51.6 °F 48.5 °F 29.70 in ESE 5.0 mph 9.0 mph 89 % 0.00 in 100 W/m2
11:36 51.6 °F 48.5 °F 29.71 in ESE 5.0 mph 9.0 mph 89 % 0.00 in 67 W/m2
11:41 51.4 °F 48.0 °F 29.71 in ESE 5.0 mph 8.0 mph 88 % 0.00 in 74 W/m2
11:46 51.4 °F 48.0 °F 29.71 in ESE 6.0 mph 10.0 mph 88 % 0.00 in 62 W/m2
11:51 51.3 °F 47.2 °F 29.72 in SE 8.0 mph 14.0 mph 86 % 0.00 in 79 W/m2
11:56 51.3 °F 46.9 °F 29.71 in SE 8.0 mph 14.0 mph 85 % 0.00 in 237 W/m2
12:01 51.6 °F 47.3 °F 29.71 in SE 5.0 mph 12.0 mph 85 % 0.00 in 626 W/m2
12:06 52.3 °F 48.0 °F 29.71 in SE 2.0 mph 6.0 mph 85 % 0.00 in 587 W/m2
12:11 53.2 °F 47.6 °F 29.72 in SE 3.0 mph 7.0 mph 81 % 0.00 in 552 W/m2
12:16 54.0 °F 46.9 °F 29.72 in SE 3.0 mph 9.0 mph 77 % 0.00 in 540 W/m2
12:21 55.0 °F 47.3 °F 29.72 in ESE 3.0 mph 10.0 mph 75 % 0.00 in 529 W/m2
12:26 55.6 °F 47.4 °F 29.72 in SE 4.0 mph 10.0 mph 74 % 0.00 in 244 W/m2
12:31 55.8 °F 47.2 °F 29.72 in ESE 3.0 mph 8.0 mph 73 % 0.00 in 207 W/m2
12:36 55.6 °F 47.1 °F 29.72 in East 3.0 mph 7.0 mph 73 % 0.00 in 179 W/m2
12:41 55.4 °F 46.5 °F 29.73 in ESE 4.0 mph 8.0 mph 72 % 0.00 in 105 W/m2
12:46 55.2 °F 46.0 °F 29.73 in ESE 6.0 mph 13.0 mph 71 % 0.00 in 281 W/m2
12:51 55.2 °F 46.0 °F 29.73 in SE 7.0 mph 13.0 mph 71 % 0.00 in 399 W/m2
12:56 55.8 °F 46.5 °F 29.73 in SE 6.0 mph 12.0 mph 71 % 0.00 in 309 W/m2
13:01 56.5 °F 46.8 °F 29.73 in ESE 5.0 mph 9.0 mph 70 % 0.00 in 1053 W/m2
13:06 57.6 °F 46.7 °F 29.73 in ESE 6.0 mph 14.0 mph 67 % 0.00 in 976 W/m2
13:11 58.3 °F 45.3 °F 29.73 in SE 7.0 mph 14.0 mph 62 % 0.00 in 953 W/m2
13:16 58.6 °F 45.2 °F 29.73 in SE 7.0 mph 14.0 mph 61 % 0.00 in 262 W/m2
13:21 58.6 °F 44.8 °F 29.73 in ESE 7.0 mph 14.0 mph 60 % 0.00 in 274 W/m2
13:27 58.5 °F 44.6 °F 29.73 in ESE 7.0 mph 12.0 mph 60 % 0.00 in 251 W/m2
13:32 58.3 °F 45.3 °F 29.73 in ESE 8.0 mph 12.0 mph 62 % 0.00 in 371 W/m2
13:37 58.5 °F 45.1 °F 29.73 in ESE 6.0 mph 11.0 mph 61 % 0.00 in 299 W/m2
13:42 58.3 °F 45.3 °F 29.74 in ESE 6.0 mph 10.0 mph 62 % 0.00 in 276 W/m2
13:47 58.3 °F 45.3 °F 29.74 in ESE 6.0 mph 12.0 mph 62 % 0.00 in 359 W/m2
13:52 58.1 °F 45.6 °F 29.74 in ESE 6.0 mph 12.0 mph 63 % 0.00 in 489 W/m2
13:57 58.3 °F 45.3 °F 29.74 in ESE 7.0 mph 12.0 mph 62 % 0.00 in 997 W/m2
14:02 58.6 °F 45.7 °F 29.74 in ESE 8.0 mph 13.0 mph 62 % 0.00 in 986 W/m2
14:07 59.4 °F 46.3 °F 29.74 in SE 8.0 mph 14.0 mph 62 % 0.00 in 1100 W/m2
14:12 60.1 °F 46.1 °F 29.74 in ESE 7.0 mph 14.0 mph 60 % 0.00 in 654 W/m2
14:17 60.3 °F 45.9 °F 29.75 in East 7.0 mph 14.0 mph 59 % 0.00 in 1053 W/m2
14:22 60.3 °F 46.3 °F 29.75 in East 8.0 mph 16.0 mph 60 % 0.00 in 1097 W/m2
14:27 60.4 °F 46.0 °F 29.75 in East 7.0 mph 16.0 mph 59 % 0.00 in 232 W/m2
14:32 60.3 °F 45.9 °F 29.75 in ENE 6.0 mph 13.0 mph 59 % 0.00 in 287 W/m2
14:37 59.9 °F 46.0 °F 29.75 in East 6.0 mph 13.0 mph 60 % 0.00 in 976 W/m2
14:42 59.7 °F 45.8 °F 29.75 in East 7.0 mph 13.0 mph 60 % 0.00 in 373 W/m2
14:47 59.7 °F 45.8 °F 29.75 in East 7.0 mph 13.0 mph 60 % 0.00 in 1048 W/m2
14:52 60.3 °F 45.4 °F 29.75 in ESE 7.0 mph 13.0 mph 58 % 0.00 in 332 W/m2
14:57 60.3 °F 45.4 °F 29.76 in East 8.0 mph 16.0 mph 58 % 0.00 in 178 W/m2
15:02 59.7 °F 45.4 °F 29.75 in East 7.0 mph 16.0 mph 59 % 0.00 in 200 W/m2
15:07 59.5 °F 45.6 °F 29.75 in East 6.0 mph 13.0 mph 60 % 0.00 in 860 W/m2
15:12 60.3 °F 46.3 °F 29.76 in East 7.0 mph 16.0 mph 60 % 0.00 in 847 W/m2
15:17 59.9 °F 46.0 °F 29.76 in East 8.0 mph 16.0 mph 60 % 0.00 in 269 W/m2
15:22 59.5 °F 46.9 °F 29.76 in East 7.0 mph 18.0 mph 63 % 0.00 in 826 W/m2
15:27 59.4 °F 45.9 °F 29.76 in ENE 8.0 mph 18.0 mph 61 % 0.00 in 229 W/m2
15:32 59.5 °F 46.5 °F 29.77 in ENE 9.0 mph 18.0 mph 62 % 0.00 in 689 W/m2
15:37 59.5 °F 46.1 °F 29.77 in ENE 8.0 mph 20.0 mph 61 % 0.00 in 218 W/m2
15:43 59.4 °F 45.5 °F 29.77 in ENE 8.0 mph 20.0 mph 60 % 0.00 in 185 W/m2
15:48 59.5 °F 45.6 °F 29.77 in East 9.0 mph 20.0 mph 60 % 0.00 in 707 W/m2
15:53 59.7 °F 45.8 °F 29.77 in East 10.0 mph 19.0 mph 60 % 0.00 in 698 W/m2
15:58 60.4 °F 46.0 °F 29.78 in East 9.0 mph 19.0 mph 59 % 0.00 in 729 W/m2
16:03 60.8 °F 46.4 °F 29.78 in East 8.0 mph 15.0 mph 59 % 0.00 in 721 W/m2
16:08 61.0 °F 46.5 °F 29.78 in East 7.0 mph 16.0 mph 59 % 0.00 in 664 W/m2
16:13 61.2 °F 46.3 °F 29.78 in East 8.0 mph 19.0 mph 58 % 0.00 in 724 W/m2
16:18 60.6 °F 46.2 °F 29.79 in East 9.0 mph 19.0 mph 59 % 0.00 in 209 W/m2
16:23 60.1 °F 46.1 °F 29.79 in ENE 9.0 mph 16.0 mph 60 % 0.00 in 707 W/m2
16:28 60.1 °F 46.1 °F 29.79 in ENE 8.0 mph 19.0 mph 60 % 0.00 in 134 W/m2
16:33 59.7 °F 45.8 °F 29.79 in ENE 8.0 mph 19.0 mph 60 % 0.00 in 251 W/m2
16:38 59.4 °F 45.5 °F 29.80 in East 8.0 mph 18.0 mph 60 % 0.00 in 547 W/m2
16:43 59.4 °F 45.5 °F 29.80 in ENE 9.0 mph 19.0 mph 60 % 0.00 in 515 W/m2
16:48 59.0 °F 45.6 °F 29.80 in ENE 9.0 mph 19.0 mph 61 % 0.00 in 517 W/m2
16:53 59.2 °F 45.7 °F 29.80 in ENE 8.0 mph 16.0 mph 61 % 0.00 in 585 W/m2
16:58 59.7 °F 46.2 °F 29.81 in ENE 7.0 mph 14.0 mph 61 % 0.00 in 649 W/m2
17:03 60.1 °F 45.7 °F 29.81 in ENE 7.0 mph 15.0 mph 59 % 0.00 in 338 W/m2
17:08 59.5 °F 45.2 °F 29.81 in ENE 8.0 mph 19.0 mph 59 % 0.00 in 563 W/m2
17:13 59.7 °F 45.4 °F 29.81 in ENE 8.0 mph 19.0 mph 59 % 0.00 in 596 W/m2
17:18 59.5 °F 44.3 °F 29.81 in ENE 9.0 mph 18.0 mph 57 % 0.00 in 385 W/m2
17:23 59.4 °F 44.6 °F 29.82 in ENE 8.0 mph 18.0 mph 58 % 0.00 in 475 W/m2
17:28 59.5 °F 44.3 °F 29.82 in East 6.0 mph 16.0 mph 57 % 0.00 in 566 W/m2
17:33 60.1 °F 43.9 °F 29.82 in East 7.0 mph 20.0 mph 55 % 0.00 in 167 W/m2
17:38 59.7 °F 42.6 °F 29.82 in East 7.0 mph 20.0 mph 53 % 0.00 in 186 W/m2
17:43 59.5 °F 43.3 °F 29.83 in East 7.0 mph 15.0 mph 55 % 0.00 in 311 W/m2
17:48 59.2 °F 43.9 °F 29.83 in East 8.0 mph 15.0 mph 57 % 0.00 in 128 W/m2
17:53 58.5 °F 43.7 °F 29.83 in East 8.0 mph 14.0 mph 58 % 0.00 in 74 W/m2
17:58 57.7 °F 43.9 °F 29.84 in East 7.0 mph 14.0 mph 60 % 0.00 in 105 W/m2
18:04 57.4 °F 44.0 °F 29.84 in East 7.0 mph 15.0 mph 61 % 0.00 in 176 W/m2
18:09 57.2 °F 43.9 °F 29.84 in East 7.0 mph 15.0 mph 61 % 0.00 in 260 W/m2
18:14 57.2 °F 43.9 °F 29.84 in East 7.0 mph 14.0 mph 61 % 0.00 in 220 W/m2
18:19 57.2 °F 43.9 °F 29.84 in East 6.0 mph 15.0 mph 61 % 0.00 in 132 W/m2
18:24 56.8 °F 44.0 °F 29.85 in East 6.0 mph 15.0 mph 62 % 0.00 in 97 W/m2
18:29 56.5 °F 44.0 °F 29.85 in East 7.0 mph 18.0 mph 63 % 0.00 in 121 W/m2
18:34 56.1 °F 44.1 °F 29.85 in East 8.0 mph 18.0 mph 64 % 0.00 in 197 W/m2
18:39 55.9 °F 43.9 °F 29.86 in ENE 8.0 mph 16.0 mph 64 % 0.00 in 207 W/m2
18:44 55.8 °F 44.2 °F 29.86 in ENE 8.0 mph 16.0 mph 65 % 0.00 in 190 W/m2
18:45 55.8 °F 44.2 °F 29.86 in ENE 8.0 mph 16.0 mph 65 % 0.00 in 190 W/m2
18:50 55.6 °F 44.0 °F 29.86 in East 7.0 mph 14.0 mph 65 % 0.00 in 169 W/m2
18:55 55.6 °F 44.0 °F 29.86 in ENE 7.0 mph 14.0 mph 65 % 0.00 in 190 W/m2
19:00 55.4 °F 43.8 °F 29.87 in ENE 8.0 mph 16.0 mph 65 % 0.00 in 195 W/m2
19:05 55.2 °F 44.1 °F 29.87 in ENE 7.0 mph 16.0 mph 66 % 0.00 in 197 W/m2
19:10 55.6 °F 44.0 °F 29.87 in ENE 6.0 mph 13.0 mph 65 % 0.00 in 230 W/m2
19:15 55.6 °F 44.0 °F 29.87 in ENE 7.0 mph 14.0 mph 65 % 0.00 in 213 W/m2
19:20 55.6 °F 44.0 °F 29.87 in ENE 7.0 mph 14.0 mph 65 % 0.00 in 171 W/m2
19:25 55.2 °F 43.7 °F 29.87 in ENE 7.0 mph 16.0 mph 65 % 0.00 in 132 W/m2
19:30 55.0 °F 43.5 °F 29.88 in East 7.0 mph 16.0 mph 65 % 0.00 in 84 W/m2
19:31 55.0 °F 43.5 °F 29.88 in East 7.0 mph 16.0 mph 65 % 0.00 in 77 W/m2
19:36 54.3 °F 42.8 °F 29.88 in East 7.0 mph 15.0 mph 65 % 0.00 in 77 W/m2
19:41 54.0 °F 43.2 °F 29.88 in ENE 8.0 mph 15.0 mph 67 % 0.00 in 49 W/m2
19:46 53.8 °F 43.5 °F 29.89 in East 7.0 mph 15.0 mph 68 % 0.00 in 33 W/m2
19:51 53.4 °F 43.1 °F 29.89 in East 7.0 mph 16.0 mph 68 % 0.00 in 32 W/m2
19:56 53.1 °F 43.2 °F 29.89 in East 7.0 mph 16.0 mph 69 % 0.00 in 30 W/m2
20:01 52.5 °F 43.0 °F 29.90 in East 7.0 mph 13.0 mph 70 % 0.00 in 25 W/m2
20:06 52.3 °F 43.2 °F 29.90 in East 7.0 mph 12.0 mph 71 % 0.00 in 21 W/m2
20:11 52.0 °F 43.2 °F 29.90 in East 7.0 mph 12.0 mph 72 % 0.00 in 14 W/m2
20:16 51.8 °F 43.1 °F 29.90 in East 6.0 mph 12.0 mph 72 % 0.00 in 12 W/m2
20:21 51.4 °F 43.1 °F 29.91 in East 5.0 mph 11.0 mph 73 % 0.00 in 11 W/m2
20:26 51.3 °F 42.9 °F 29.91 in East 6.0 mph 11.0 mph 73 % 0.00 in 7 W/m2
20:28 51.3 °F 43.3 °F 29.91 in East 6.0 mph 11.0 mph 74 % 0.00 in 7 W/m2
20:33 51.1 °F 43.1 °F 29.91 in East 6.0 mph 11.0 mph 74 % 0.00 in 5 W/m2
20:38 50.9 °F 42.9 °F 29.92 in East 6.0 mph 13.0 mph 74 % 0.00 in 0 W/m2
20:43 50.5 °F 42.9 °F 29.92 in East 5.0 mph 13.0 mph 75 % 0.00 in 0 W/m2
20:48 50.4 °F 43.1 °F 29.92 in East 4.0 mph 12.0 mph 76 % 0.00 in 0 W/m2
20:53 50.2 °F 43.2 °F 29.92 in East 5.0 mph 13.0 mph 77 % 0.00 in 0 W/m2
20:58 49.8 °F 42.9 °F 29.92 in ENE 5.0 mph 13.0 mph 77 % 0.00 in 0 W/m2
21:03 49.6 °F 43.1 °F 29.93 in ENE 5.0 mph 12.0 mph 78 % 0.00 in 0 W/m2
21:08 49.5 °F 43.2 °F 29.93 in ENE 4.0 mph 10.0 mph 79 % 0.00 in 0 W/m2
21:13 49.3 °F 43.0 °F 29.93 in ENE 4.0 mph 10.0 mph 79 % 0.00 in 0 W/m2
21:18 49.1 °F 43.2 °F 29.93 in ENE 4.0 mph 10.0 mph 80 % 0.00 in 0 W/m2
21:23 48.9 °F 43.3 °F 29.93 in ENE 5.0 mph 10.0 mph 81 % 0.00 in 0 W/m2
21:28 48.7 °F 43.2 °F 29.94 in ENE 5.0 mph 11.0 mph 81 % 0.00 in 0 W/m2
21:33 48.6 °F 43.0 °F 29.94 in ENE 4.0 mph 11.0 mph 81 % 0.00 in 0 W/m2
21:38 48.4 °F 43.1 °F 29.94 in ENE 2.0 mph 8.0 mph 82 % 0.00 in 0 W/m2
21:43 48.2 °F 43.0 °F 29.95 in ENE 3.0 mph 8.0 mph 82 % 0.00 in 0 W/m2
21:49 48.0 °F 42.8 °F 29.95 in ENE 3.0 mph 10.0 mph 82 % 0.00 in 0 W/m2
21:54 47.8 °F 42.9 °F 29.95 in ENE 4.0 mph 10.0 mph 83 % 0.00 in 0 W/m2
21:59 47.7 °F 42.8 °F 29.95 in ENE 4.0 mph 9.0 mph 83 % 0.00 in 0 W/m2
22:04 47.7 °F 43.1 °F 29.95 in ENE 4.0 mph 8.0 mph 84 % 0.00 in 0 W/m2
22:09 47.5 °F 42.9 °F 29.96 in ENE 4.0 mph 8.0 mph 84 % 0.00 in 0 W/m2
22:14 47.5 °F 42.9 °F 29.96 in ENE 3.0 mph 9.0 mph 84 % 0.00 in 0 W/m2
22:19 47.3 °F 42.7 °F 29.96 in ENE 3.0 mph 9.0 mph 84 % 0.00 in 0 W/m2
22:24 47.1 °F 42.8 °F 29.97 in ENE 3.0 mph 7.0 mph 85 % 0.00 in 0 W/m2
22:29 46.9 °F 43.0 °F 29.97 in ENE 3.0 mph 7.0 mph 86 % 0.00 in 0 W/m2
22:34 46.9 °F 43.0 °F 29.97 in ENE 3.0 mph 7.0 mph 86 % 0.00 in 0 W/m2
22:39 46.8 °F 43.1 °F 29.97 in ENE 3.0 mph 8.0 mph 87 % 0.00 in 0 W/m2
22:44 46.8 °F 43.4 °F 29.97 in ENE 3.0 mph 8.0 mph 88 % 0.00 in 0 W/m2
22:49 46.6 °F 43.2 °F 29.97 in ENE 2.0 mph 6.0 mph 88 % 0.00 in 0 W/m2
22:54 46.6 °F 43.5 °F 29.98 in NE 3.0 mph 7.0 mph 89 % 0.00 in 0 W/m2
22:56 46.6 °F 43.5 °F 29.98 in NE 3.0 mph 7.0 mph 89 % 0.00 in 0 W/m2
23:01 46.8 °F 44.0 °F 29.98 in NE 2.0 mph 7.0 mph 90 % 0.00 in 0 W/m2
23:06 46.8 °F 44.0 °F 29.98 in NE 3.0 mph 9.0 mph 90 % 0.00 in 0 W/m2
23:11 46.9 °F 44.2 °F 29.98 in NE 3.0 mph 9.0 mph 90 % 0.00 in 0 W/m2
23:16 46.9 °F 44.2 °F 29.98 in NE 2.0 mph 8.0 mph 90 % 0.00 in 0 W/m2
23:21 46.9 °F 44.2 °F 29.98 in ENE 2.0 mph 7.0 mph 90 % 0.00 in 0 W/m2
23:26 46.9 °F 44.2 °F 29.99 in ENE 3.0 mph 7.0 mph 90 % 0.00 in 0 W/m2
23:31 46.9 °F 44.4 °F 29.99 in NE 3.0 mph 7.0 mph 91 % 0.00 in 0 W/m2
23:36 46.9 °F 44.4 °F 29.99 in ENE 3.0 mph 7.0 mph 91 % 0.00 in 0 W/m2
23:41 46.9 °F 44.4 °F 30.00 in NE 4.0 mph 8.0 mph 91 % 0.00 in 0 W/m2
23:46 46.9 °F 44.4 °F 30.00 in NE 4.0 mph 9.0 mph 91 % 0.00 in 0 W/m2
23:51 46.9 °F 44.2 °F 30.00 in NE 4.0 mph 9.0 mph 90 % 0.00 in 0 W/m2
23:56 46.8 °F 44.3 °F 30.00 in NE 4.0 mph 9.0 mph 91 % 0.00 in 0 W/m2
Delerius-Weather
Compliments of Weather Underground - 2.25 mb

Data updates at regular intervals.